CYMJ

Moose Jaw Air Vice Marshal C. M. McEwen Airport

Moose Jaw, Saskatchewan, Canada
METAR CYMJ 221700Z 34004KT 15SM SCT110 BKN260 24/11 A2991 RMK AC3CI2 SLP129
Observed Flight Rules
May-22 @ 17:00 UTC (47 minutes ago) Visual Flight Rules
Wind Visibility Clouds
340° at 4 knots 15 miles
  • Scattered at 11,000' AGL
  • Broken at 26,000' AGL
Temperatures Readings
Current 24°C / 75°F
Dewpoint 11°C / 52°F
Humidity 44%
Altimeter 29.91" Hg
Pressure 1012.9 hPa
Elevation 577
METAR CYMJ 221700Z 34004KT 15SM SCT110 BKN260 24/11 A2991 RMK AC3CI2 SLP129
Observed Flight Rules
May-22 @ 17:00 UTC
(47 minutes ago)
VFR
Wind Visibility
340° at 4 knots 15 miles
Clouds
  • Scattered at 11,000' AGL
  • Broken at 26,000' AGL
Temperature Dewpoint
24°C / 75°F 11°C / 52°F
Humidity Altimeter Pressure
44% 29.91" Hg 1012.9 hPa